createdAt,value
2019-03-08T00:00:07.555Z,99792.95
2019-03-08T00:03:07.791Z,99799.77
2019-03-08T00:05:48.838Z,99807.24
2019-03-08T00:08:45.255Z,99797.99
2019-03-08T00:11:26.357Z,99809.80
2019-03-08T00:14:06.556Z,99804.47
2019-03-08T00:16:42.768Z,99804.08
2019-03-08T00:19:50.600Z,99813.14
2019-03-08T00:22:26.841Z,99795.06
2019-03-08T00:24:59.637Z,99812.50
2019-03-08T00:27:40.982Z,99816.20
2019-03-08T00:30:29.115Z,99810.61
2019-03-08T00:33:12.303Z,99833.87
2019-03-08T00:36:06.170Z,99840.87
2019-03-08T00:39:36.602Z,99830.55
2019-03-08T00:42:16.749Z,99841.31
2019-03-08T00:45:18.959Z,99836.54
2019-03-08T00:48:07.584Z,99843.13
2019-03-08T00:51:22.111Z,99844.88
2019-03-08T00:53:58.325Z,99850.03
2019-03-08T00:56:43.548Z,99843.09
2019-03-08T00:59:58.048Z,99846.88
2019-03-08T01:02:30.381Z,99855.90
2019-03-08T01:05:16.356Z,99852.95
2019-03-08T01:08:08.480Z,99850.59
2019-03-08T01:10:45.106Z,99857.41
2019-03-08T01:13:18.724Z,99866.06
2019-03-08T01:15:54.482Z,99867.86
2019-03-08T01:18:27.462Z,99879.13
2019-03-08T01:21:51.322Z,99900.14
2019-03-08T01:24:54.037Z,99865.80
2019-03-08T01:27:38.378Z,99885.00
2019-03-08T01:30:23.527Z,99881.75
2019-03-08T01:32:58.030Z,99883.91
2019-03-08T01:35:32.932Z,99883.39
2019-03-08T01:38:37.246Z,99889.64
2019-03-08T01:41:15.694Z,99876.52
2019-03-08T01:43:48.507Z,99883.48
2019-03-08T01:46:50.705Z,99897.15
2019-03-08T01:49:25.005Z,99894.75
2019-03-08T01:52:10.054Z,99891.41
2019-03-08T01:54:52.198Z,99896.36
2019-03-08T02:01:06.416Z,99908.02
2019-03-08T02:03:46.233Z,99918.38
2019-03-08T02:09:21.003Z,99920.05
2019-03-08T02:12:01.194Z,99922.95
2019-03-08T02:14:34.267Z,99949.79
2019-03-08T02:17:06.960Z,99934.13
2019-03-08T02:19:39.526Z,99921.53
2019-03-08T02:22:11.773Z,99934.84
2019-03-08T02:24:45.700Z,99933.25
2019-03-08T02:27:18.283Z,99942.56
2019-03-08T02:29:50.182Z,99951.53
2019-03-08T02:32:20.863Z,99940.67
2019-03-08T02:34:52.768Z,99945.67
2019-03-08T02:37:28.825Z,99945.69
2019-03-08T02:40:03.367Z,99950.81
2019-03-08T02:42:37.460Z,99946.23
2019-03-08T02:45:18.419Z,99944.25
2019-03-08T02:48:09.934Z,99953.51
2019-03-08T02:50:41.752Z,99959.00
2019-03-08T02:53:15.013Z,99960.67
2019-03-08T02:55:48.650Z,99964.95
2019-03-08T02:58:29.176Z,99956.95
2019-03-08T03:01:05.119Z,99959.11
2019-03-08T03:03:41.577Z,99973.58
2019-03-08T03:06:13.748Z,99974.16
2019-03-08T03:08:50.765Z,99974.41
2019-03-08T03:11:24.488Z,99975.84
2019-03-08T03:14:00.784Z,99985.58
2019-03-08T03:16:42.900Z,99984.00
2019-03-08T03:19:16.871Z,99985.99
2019-03-08T03:21:52.344Z,99984.12
2019-03-08T03:24:25.302Z,99993.52
2019-03-08T03:26:58.103Z,99986.06
2019-03-08T03:29:32.019Z,99995.13
2019-03-08T03:32:07.166Z,100003.92
2019-03-08T03:34:42.221Z,99997.64
2019-03-08T03:37:17.628Z,100003.45
2019-03-08T03:39:49.734Z,100018.12
2019-03-08T03:42:22.921Z,100019.93
2019-03-08T03:44:55.148Z,100020.07
2019-03-08T03:47:29.910Z,100025.73
2019-03-08T03:50:03.357Z,100031.40
2019-03-08T03:52:40.195Z,100034.70
2019-03-08T03:55:13.874Z,100048.49
2019-03-08T03:57:47.263Z,100048.03
2019-03-08T04:00:25.109Z,100048.20
2019-03-08T04:03:00.941Z,100057.71
2019-03-08T04:05:36.059Z,100077.31
2019-03-08T04:08:09.611Z,100096.60
2019-03-08T04:10:43.409Z,100106.78
2019-03-08T04:13:16.593Z,100117.34
2019-03-08T04:15:50.955Z,100107.02
2019-03-08T04:18:22.456Z,100112.31
2019-03-08T04:20:56.443Z,100118.29
2019-03-08T04:23:31.327Z,100121.30
2019-03-08T04:27:10.114Z,100126.64
2019-03-08T04:30:08.055Z,100124.45
2019-03-08T04:32:47.366Z,100132.97
2019-03-08T04:35:27.395Z,100138.30
2019-03-08T04:38:09.713Z,100150.72
2019-03-08T04:40:43.233Z,100151.47
2019-03-08T04:43:14.225Z,100153.31
2019-03-08T04:45:48.797Z,100158.66
2019-03-08T04:48:22.492Z,100169.31
2019-03-08T04:51:16.090Z,100172.50
2019-03-08T04:53:51.395Z,100176.98
2019-03-08T04:56:24.640Z,100183.34
2019-03-08T04:58:57.738Z,100185.58
2019-03-08T05:01:31.360Z,100182.97
2019-03-08T05:04:03.161Z,100188.12
2019-03-08T05:06:38.507Z,100189.94
2019-03-08T05:09:10.327Z,100195.40
2019-03-08T05:11:44.286Z,100203.84
2019-03-08T05:14:16.883Z,100211.45
2019-03-08T05:16:47.292Z,100210.86
2019-03-08T05:19:18.266Z,100212.81
2019-03-08T05:22:12.521Z,100203.53
2019-03-08T05:25:47.024Z,100212.72
2019-03-08T05:28:36.769Z,100217.26
2019-03-08T05:31:19.220Z,100218.31
2019-03-08T05:33:58.577Z,100221.98
2019-03-08T05:36:38.898Z,100234.69
2019-03-08T05:39:16.773Z,100235.38
2019-03-08T05:41:57.050Z,100232.58
2019-03-08T05:44:32.733Z,100240.47
2019-03-08T05:47:08.816Z,100246.64
2019-03-08T05:49:39.956Z,100248.28
2019-03-08T05:52:13.437Z,100255.67
2019-03-08T05:54:46.118Z,100262.74
2019-03-08T05:57:18.545Z,100271.33
2019-03-08T05:59:52.238Z,100285.47
2019-03-08T06:02:25.919Z,100279.69
2019-03-08T06:05:09.762Z,100279.92
2019-03-08T06:07:44.940Z,100292.19
2019-03-08T06:10:35.090Z,100292.84
2019-03-08T06:13:17.354Z,100302.31
2019-03-08T06:15:54.565Z,100308.50
2019-03-08T06:18:25.457Z,100313.45
2019-03-08T06:21:05.699Z,100321.50
2019-03-08T06:23:39.657Z,100323.66
2019-03-08T06:26:11.012Z,100332.44
2019-03-08T06:28:43.648Z,100349.08
2019-03-08T06:31:15.305Z,100354.23
2019-03-08T06:33:46.264Z,100350.68
2019-03-08T06:36:22.534Z,100373.84
2019-03-08T06:38:53.598Z,100378.16
2019-03-08T06:41:25.764Z,100381.23
2019-03-08T06:44:01.758Z,100397.47
2019-03-08T06:46:32.862Z,100395.83
2019-03-08T06:49:08.782Z,100414.98
2019-03-08T06:51:43.833Z,100414.73
2019-03-08T06:54:17.444Z,100430.23
2019-03-08T06:56:50.026Z,100432.22
2019-03-08T06:59:39.965Z,100433.20
2019-03-08T07:02:16.069Z,100439.48
2019-03-08T07:04:49.412Z,100443.72
2019-03-08T07:07:26.907Z,100449.16
2019-03-08T07:10:00.683Z,100465.18
2019-03-08T07:12:33.851Z,100472.53
2019-03-08T07:15:11.357Z,100479.58
2019-03-08T07:17:50.889Z,100489.92
2019-03-08T07:21:02.531Z,100493.76
2019-03-08T07:23:40.618Z,100502.89
2019-03-08T07:26:28.691Z,100502.20
2019-03-08T07:29:35.366Z,100513.07
2019-03-08T07:32:46.135Z,100516.91
2019-03-08T07:35:35.956Z,100537.73
2019-03-08T07:38:31.358Z,100541.02
2019-03-08T07:41:24.840Z,100543.41
2019-03-08T07:44:15.335Z,100551.80
2019-03-08T07:47:18.636Z,100560.68
2019-03-08T07:50:11.324Z,100564.00
2019-03-08T07:53:00.504Z,100568.34
2019-03-08T07:55:53.186Z,100581.66
2019-03-08T07:58:42.220Z,100594.19
2019-03-08T08:01:35.277Z,100591.89
2019-03-08T08:07:13.219Z,100610.59
2019-03-08T08:10:08.198Z,100613.43
2019-03-08T08:12:51.438Z,100621.91
2019-03-08T08:16:02.519Z,100630.95
2019-03-08T08:19:11.774Z,100639.86
2019-03-08T08:22:14.664Z,100651.87
2019-03-08T08:25:13.726Z,100651.35
2019-03-08T08:28:29.943Z,100656.73
2019-03-08T08:31:23.575Z,100666.47
2019-03-08T08:34:15.400Z,100674.52
2019-03-08T08:37:00.873Z,100681.39
2019-03-08T08:39:50.277Z,100680.84
2019-03-08T08:43:01.672Z,100689.06
2019-03-08T08:45:52.421Z,100699.47
2019-03-08T08:48:38.004Z,100698.50
2019-03-08T08:51:34.769Z,100709.91
2019-03-08T08:54:33.253Z,100709.42
2019-03-08T08:57:23.471Z,100717.25
2019-03-08T09:00:23.287Z,100719.36
2019-03-08T09:03:27.798Z,100719.83
2019-03-08T09:06:06.412Z,100733.41
2019-03-08T09:08:54.440Z,100739.38
2019-03-08T09:11:52.524Z,100741.05
2019-03-08T09:14:32.745Z,100741.90
2019-03-08T09:17:21.776Z,100750.45
2019-03-08T09:20:11.836Z,100754.44
2019-03-08T09:22:56.732Z,100758.39
2019-03-08T09:25:45.146Z,100764.56
2019-03-08T09:28:41.970Z,100766.32
2019-03-08T09:31:38.151Z,100780.23
2019-03-08T09:34:40.355Z,100775.08
2019-03-08T09:37:30.190Z,100771.47
2019-03-08T09:40:27.282Z,100787.01
2019-03-08T09:43:09.647Z,100782.25
2019-03-08T09:46:08.135Z,100793.17
2019-03-08T09:49:13.926Z,100794.30
2019-03-08T09:51:54.765Z,100806.57
2019-03-08T09:54:56.478Z,100814.86
2019-03-08T09:57:47.519Z,100819.64
2019-03-08T10:00:55.188Z,100816.06
2019-03-08T10:03:46.451Z,100825.47
2019-03-08T10:06:52.046Z,100834.38
2019-03-08T10:09:53.228Z,100835.64
2019-03-08T10:13:00.522Z,100831.78
2019-03-08T10:15:39.470Z,100843.08
2019-03-08T10:18:48.090Z,100847.20
2019-03-08T10:25:18.284Z,100850.91
2019-03-08T10:28:33.102Z,100856.04
2019-03-08T10:31:31.695Z,100863.73
2019-03-08T10:34:42.913Z,100867.43
2019-03-08T10:37:42.451Z,100875.53
2019-03-08T10:40:31.617Z,100874.25
2019-03-08T10:43:33.397Z,100877.02
2019-03-08T10:46:35.541Z,100890.53
2019-03-08T10:49:33.398Z,100900.75
2019-03-08T10:52:35.095Z,100893.89
2019-03-08T10:55:36.451Z,100906.48
2019-03-08T10:58:46.381Z,100912.64
2019-03-08T11:01:50.751Z,100912.14
2019-03-08T11:04:35.809Z,100919.64
2019-03-08T11:07:17.192Z,100920.86
2019-03-08T11:10:31.795Z,100926.62
2019-03-08T11:13:26.499Z,100934.91
2019-03-08T11:16:14.348Z,100935.50
2019-03-08T11:19:08.513Z,100941.38
2019-03-08T11:22:12.026Z,100941.80
2019-03-08T11:25:08.578Z,100940.02
2019-03-08T11:27:57.869Z,100947.77
2019-03-08T11:31:05.562Z,100948.73
2019-03-08T11:34:16.442Z,100952.84
2019-03-08T11:37:10.375Z,100951.22
2019-03-08T11:40:17.783Z,100952.98
2019-03-08T11:43:08.916Z,100953.82
2019-03-08T11:45:52.661Z,100952.78
2019-03-08T11:49:05.306Z,100953.19
2019-03-08T11:52:18.227Z,100963.28
2019-03-08T11:55:26.138Z,100965.52
2019-03-08T11:58:19.350Z,100975.96
2019-03-08T12:01:09.264Z,100977.25
2019-03-08T12:04:02.053Z,100984.08
2019-03-08T12:06:57.591Z,100989.13
2019-03-08T12:09:45.808Z,100996.64
2019-03-08T12:12:34.120Z,100998.16
2019-03-08T12:15:33.805Z,100988.76
2019-03-08T12:18:28.928Z,100987.80
2019-03-08T12:21:20.006Z,100990.79
2019-03-08T12:24:06.636Z,100990.67
2019-03-08T12:27:16.075Z,100979.73
2019-03-08T12:29:56.579Z,100975.91
2019-03-08T12:32:48.085Z,100988.19
2019-03-08T12:38:53.786Z,100989.28
2019-03-08T12:41:57.567Z,100977.53
2019-03-08T12:44:54.150Z,100976.31
2019-03-08T12:47:44.134Z,100978.38
2019-03-08T12:50:37.745Z,100994.06
2019-03-08T12:53:36.479Z,100981.27
2019-03-08T12:56:19.185Z,100976.58
2019-03-08T12:59:09.796Z,100988.59
2019-03-08T13:02:15.079Z,100983.32
2019-03-08T13:05:23.547Z,100978.63
2019-03-08T13:08:12.939Z,100973.25
2019-03-08T13:10:52.697Z,100982.09
2019-03-08T13:13:24.671Z,100982.62
2019-03-08T13:16:05.374Z,100983.13
2019-03-08T13:18:37.371Z,100988.48
2019-03-08T13:21:13.042Z,100983.26
2019-03-08T13:23:46.210Z,100982.06
2019-03-08T13:26:23.007Z,100976.48
2019-03-08T13:28:57.206Z,100972.36
2019-03-08T13:31:29.054Z,100975.27
2019-03-08T13:34:00.771Z,100972.09
2019-03-08T13:36:34.735Z,100974.88
2019-03-08T13:39:14.607Z,100981.92
2019-03-08T13:41:48.102Z,100988.88
2019-03-08T13:44:20.312Z,100986.34
2019-03-08T13:46:56.071Z,100981.41
2019-03-08T13:49:27.879Z,100993.53
2019-03-08T13:52:01.210Z,100990.44
2019-03-08T13:54:35.431Z,100993.53
2019-03-08T13:57:11.738Z,100982.95
2019-03-08T13:59:51.146Z,100987.41
2019-03-08T14:02:24.015Z,100996.55
2019-03-08T14:04:56.402Z,100990.74
2019-03-08T14:07:30.506Z,100991.80
2019-03-08T14:10:02.380Z,100990.86
2019-03-08T14:12:33.487Z,100979.91
2019-03-08T14:15:07.953Z,100982.41
2019-03-08T14:17:52.712Z,100982.78
2019-03-08T14:20:29.160Z,100986.12
2019-03-08T14:22:59.470Z,100978.45
2019-03-08T14:25:30.677Z,100981.01
2019-03-08T14:28:03.879Z,100973.52
2019-03-08T14:30:46.152Z,100975.75
2019-03-08T14:33:20.951Z,100965.23
2019-03-08T14:36:02.949Z,100969.06
2019-03-08T14:38:38.090Z,100974.25
2019-03-08T14:41:17.597Z,100973.42
2019-03-08T14:43:54.411Z,100968.04
2019-03-08T14:46:40.774Z,100967.52
2019-03-08T14:49:24.342Z,100977.96
2019-03-08T14:51:59.977Z,100981.25
2019-03-08T14:54:31.735Z,100972.36
2019-03-08T14:57:26.361Z,100972.52
2019-03-08T15:00:16.321Z,100968.37
2019-03-08T15:02:49.497Z,100972.80
2019-03-08T15:05:24.655Z,100971.03
2019-03-08T15:07:57.743Z,100966.66
2019-03-08T15:10:52.663Z,100972.29
2019-03-08T15:13:30.756Z,100975.34
2019-03-08T15:16:06.093Z,100968.75
2019-03-08T15:18:41.717Z,100969.20
2019-03-08T15:21:18.729Z,100964.91
2019-03-08T15:24:00.913Z,100967.89
2019-03-08T15:26:35.615Z,100961.32
2019-03-08T15:29:08.422Z,100972.72
2019-03-08T15:31:42.027Z,100978.47
2019-03-08T15:34:28.253Z,100979.19
2019-03-08T15:37:02.440Z,100980.00
2019-03-08T15:39:42.772Z,100985.11
2019-03-08T15:42:16.907Z,100980.09
2019-03-08T15:44:53.657Z,100977.88
2019-03-08T15:47:27.352Z,100979.89
2019-03-08T15:50:08.329Z,100975.09
2019-03-08T15:52:40.249Z,100978.70
2019-03-08T15:55:21.685Z,100979.70
2019-03-08T15:57:57.451Z,100974.42
2019-03-08T16:03:21.347Z,100978.38
2019-03-08T16:06:06.437Z,100974.68
2019-03-08T16:08:39.706Z,100984.62
2019-03-08T16:11:17.004Z,100982.92
2019-03-08T16:14:08.783Z,100991.81
2019-03-08T16:19:30.593Z,100981.98
2019-03-08T16:22:04.934Z,100979.95
2019-03-08T16:24:36.249Z,100977.45
2019-03-08T16:27:07.697Z,100976.73
2019-03-08T16:29:39.005Z,100966.39
2019-03-08T16:32:35.911Z,100969.66
2019-03-08T16:35:14.122Z,100969.06
2019-03-08T16:38:07.040Z,100969.09
2019-03-08T16:41:06.593Z,100966.94
2019-03-08T16:43:59.507Z,100972.22
2019-03-08T16:46:49.992Z,100967.05
2019-03-08T16:49:32.533Z,100964.45
2019-03-08T16:52:29.265Z,100966.34
2019-03-08T16:55:37.385Z,100965.15
2019-03-08T16:59:00.921Z,100957.64
2019-03-08T17:02:08.842Z,100961.84
2019-03-08T17:05:03.567Z,100948.85
2019-03-08T17:08:10.247Z,100949.58
2019-03-08T17:10:48.325Z,100937.45
2019-03-08T17:13:51.226Z,100934.53
2019-03-08T17:16:47.496Z,100948.40
2019-03-08T17:19:43.567Z,100957.52
2019-03-08T17:27:09.548Z,100961.63
2019-03-08T17:30:27.572Z,100970.20
2019-03-08T17:33:08.972Z,100982.86
2019-03-08T17:35:59.469Z,100974.59
2019-03-08T17:38:45.938Z,100981.69
2019-03-08T17:41:51.306Z,100981.86
2019-03-08T17:44:57.990Z,100982.73
2019-03-08T17:48:00.214Z,100995.79
2019-03-08T17:51:06.760Z,100990.44
2019-03-08T17:54:04.366Z,100995.88
2019-03-08T18:00:13.147Z,101005.22
2019-03-08T18:03:01.805Z,101005.83
2019-03-08T18:06:21.302Z,101003.61
2019-03-08T18:09:00.494Z,101004.99
2019-03-08T18:14:57.889Z,100998.50
2019-03-08T18:17:47.549Z,101003.13
2019-03-08T18:23:46.015Z,100995.34
2019-03-08T18:26:35.023Z,100993.45
2019-03-08T18:29:35.861Z,100998.16
2019-03-08T18:32:44.277Z,101001.83
2019-03-08T18:35:40.518Z,101000.20
2019-03-08T18:38:43.620Z,100997.84
2019-03-08T18:41:31.267Z,100993.45
2019-03-08T18:44:25.387Z,100995.85
2019-03-08T19:01:22.310Z,100990.01
2019-03-08T19:04:08.039Z,100988.90
2019-03-08T19:07:00.849Z,100994.55
2019-03-08T19:09:37.671Z,100995.37
2019-03-08T19:12:18.477Z,101003.27
2019-03-08T19:15:09.106Z,101001.64
2019-03-08T19:17:52.794Z,101001.98
2019-03-08T19:20:47.959Z,101015.66
2019-03-08T19:23:45.408Z,101025.84
2019-03-08T19:26:34.217Z,101031.26
2019-03-08T19:29:29.066Z,101013.43
2019-03-08T19:32:13.294Z,101003.95
2019-03-08T19:35:16.071Z,101008.36
2019-03-08T19:38:21.721Z,100998.71
2019-03-08T19:41:10.780Z,101000.68
2019-03-08T19:44:04.559Z,100995.75
2019-03-08T19:47:06.862Z,100988.30
2019-03-08T19:50:06.798Z,100995.14
2019-03-08T19:53:24.384Z,100991.58
2019-03-08T19:56:12.049Z,100986.97
2019-03-08T19:59:32.521Z,100978.24
2019-03-08T20:02:42.016Z,100973.00
2019-03-08T20:05:26.790Z,100963.79
2019-03-08T20:08:22.967Z,100962.72
2019-03-08T20:11:17.075Z,100958.00
2019-03-08T20:14:17.578Z,100950.91
2019-03-08T20:17:07.424Z,100947.73
2019-03-08T20:19:52.342Z,100956.61
2019-03-08T20:22:42.778Z,100946.94
2019-03-08T20:25:23.609Z,100946.73
2019-03-08T20:28:13.109Z,100946.64
2019-03-08T20:31:08.641Z,100950.66
2019-03-08T20:33:53.436Z,100944.09
2019-03-08T20:36:43.378Z,100936.44
2019-03-08T20:39:31.337Z,100939.63
2019-03-08T20:42:07.653Z,100934.86
2019-03-08T20:44:59.679Z,100933.09
2019-03-08T20:47:32.520Z,100936.61
2019-03-08T20:50:09.322Z,100937.24
2019-03-08T20:52:51.975Z,100934.23
2019-03-08T20:55:25.232Z,100914.27
2019-03-08T20:58:05.750Z,100923.36
2019-03-08T21:00:43.516Z,100917.52
2019-03-08T21:03:19.301Z,100908.60
2019-03-08T21:05:52.837Z,100900.63
2019-03-08T21:08:25.088Z,100903.38
2019-03-08T21:10:57.484Z,100894.59
2019-03-08T21:13:33.098Z,100891.40
2019-03-08T21:16:05.939Z,100890.25
2019-03-08T21:18:40.258Z,100889.39
2019-03-08T21:21:14.756Z,100888.06
2019-03-08T21:23:47.071Z,100895.33
2019-03-08T21:26:19.067Z,100889.67
2019-03-08T21:28:49.635Z,100887.17
2019-03-08T21:31:24.124Z,100893.25
2019-03-08T21:33:56.156Z,100898.12
2019-03-08T21:36:36.138Z,100886.12
2019-03-08T21:39:10.835Z,100881.43
2019-03-08T21:41:46.045Z,100883.23
2019-03-08T21:44:25.049Z,100882.66
2019-03-08T21:47:12.339Z,100878.69
2019-03-08T21:49:45.463Z,100869.33
2019-03-08T21:52:23.592Z,100872.46
2019-03-08T21:54:57.013Z,100864.67
2019-03-08T21:57:29.742Z,100857.85
2019-03-08T22:00:02.373Z,100848.82
2019-03-08T22:02:38.279Z,100840.27
2019-03-08T22:05:18.575Z,100843.45
2019-03-08T22:07:51.130Z,100840.95
2019-03-08T22:10:55.276Z,100829.05
2019-03-08T22:13:29.798Z,100821.16
2019-03-08T22:16:06.692Z,100819.00
2019-03-08T22:18:48.287Z,100820.02
2019-03-08T22:21:40.664Z,100811.38
2019-03-08T22:24:24.862Z,100807.34
2019-03-08T22:27:21.642Z,100804.95
2019-03-08T22:30:07.860Z,100798.61
2019-03-08T22:32:49.909Z,100799.31
2019-03-08T22:35:35.030Z,100790.69
2019-03-08T22:38:19.785Z,100789.42
2019-03-08T22:41:20.535Z,100781.56
2019-03-08T22:44:03.033Z,100779.94
2019-03-08T22:46:45.121Z,100774.09
2019-03-08T22:49:51.006Z,100764.48
2019-03-08T22:52:31.230Z,100758.69
2019-03-08T22:58:46.167Z,100753.22
2019-03-08T23:01:50.626Z,100745.92
2019-03-08T23:04:25.004Z,100742.14
2019-03-08T23:07:05.351Z,100737.28
2019-03-08T23:12:40.410Z,100732.66
2019-03-08T23:15:17.000Z,100723.77
2019-03-08T23:18:21.700Z,100729.95
2019-03-08T23:20:55.230Z,100728.72
2019-03-08T23:24:23.682Z,100714.53
2019-03-08T23:27:20.764Z,100709.39
2019-03-08T23:30:14.705Z,100698.78
2019-03-08T23:33:10.269Z,100696.72
2019-03-08T23:35:44.850Z,100681.53
2019-03-08T23:38:29.269Z,100683.91
2019-03-08T23:41:39.871Z,100679.83
2019-03-08T23:44:43.028Z,100679.33
2019-03-08T23:47:23.001Z,100659.66
2019-03-08T23:49:55.867Z,100663.69
2019-03-08T23:52:44.361Z,100656.89
2019-03-08T23:55:16.551Z,100661.00
2019-03-08T23:57:52.834Z,100663.95
